sensor_id;sensor_type;location;lat;lon;timestamp;temperature;humidity
19538;DHT22;9914;51.008;4.300;2022-11-10T00:02:02;11.50;99.90
19538;DHT22;9914;51.008;4.300;2022-11-10T00:04:27;11.50;99.90
19538;DHT22;9914;51.008;4.300;2022-11-10T00:06:53;11.50;99.90
19538;DHT22;9914;51.008;4.300;2022-11-10T00:09:19;11.40;99.90
19538;DHT22;9914;51.008;4.300;2022-11-10T00:11:45;11.40;99.90
19538;DHT22;9914;51.008;4.300;2022-11-10T00:14:10;11.30;99.90
19538;DHT22;9914;51.008;4.300;2022-11-10T00:16:54;11.30;99.90
19538;DHT22;9914;51.008;4.300;2022-11-10T00:19:27;11.40;99.90
19538;DHT22;9914;51.008;4.300;2022-11-10T00:21:53;11.30;99.90
19538;DHT22;9914;51.008;4.300;2022-11-10T00:24:19;11.20;99.90
19538;DHT22;9914;51.008;4.300;2022-11-10T00:26:45;11.30;99.90
19538;DHT22;9914;51.008;4.300;2022-11-10T00:29:10;11.20;99.90
19538;DHT22;9914;51.008;4.300;2022-11-10T00:31:37;11.30;99.90
19538;DHT22;9914;51.008;4.300;2022-11-10T00:34:02;11.20;99.90
19538;DHT22;9914;51.008;4.300;2022-11-10T00:36:28;11.20;99.90
19538;DHT22;9914;51.008;4.300;2022-11-10T00:38:54;11.10;99.90
19538;DHT22;9914;51.008;4.300;2022-11-10T00:41:20;11.10;99.90
19538;DHT22;9914;51.008;4.300;2022-11-10T00:43:46;11.10;99.90
19538;DHT22;9914;51.008;4.300;2022-11-10T00:46:12;11.00;99.90
19538;DHT22;9914;51.008;4.300;2022-11-10T00:48:38;11.00;99.90
19538;DHT22;9914;51.008;4.300;2022-11-10T00:51:04;11.00;99.90
19538;DHT22;9914;51.008;4.300;2022-11-10T00:53:30;11.10;99.90
19538;DHT22;9914;51.008;4.300;2022-11-10T00:55:56;11.20;99.90
19538;DHT22;9914;51.008;4.300;2022-11-10T00:58:21;11.20;99.90
19538;DHT22;9914;51.008;4.300;2022-11-10T01:00:47;11.20;99.90
19538;DHT22;9914;51.008;4.300;2022-11-10T01:03:14;11.30;99.90
19538;DHT22;9914;51.008;4.300;2022-11-10T01:05:41;11.30;99.90
19538;DHT22;9914;51.008;4.300;2022-11-10T01:08:07;11.20;99.90
19538;DHT22;9914;51.008;4.300;2022-11-10T01:10:33;11.20;99.90
19538;DHT22;9914;51.008;4.300;2022-11-10T01:12:59;11.20;99.90
19538;DHT22;9914;51.008;4.300;2022-11-10T01:15:25;11.20;99.90
19538;DHT22;9914;51.008;4.300;2022-11-10T01:17:52;11.20;99.90
19538;DHT22;9914;51.008;4.300;2022-11-10T01:20:18;11.10;99.90
19538;DHT22;9914;51.008;4.300;2022-11-10T01:22:43;11.30;99.90
19538;DHT22;9914;51.008;4.300;2022-11-10T01:25:09;11.20;99.90
19538;DHT22;9914;51.008;4.300;2022-11-10T01:27:35;11.20;99.90
19538;DHT22;9914;51.008;4.300;2022-11-10T01:30:00;11.20;99.90
19538;DHT22;9914;51.008;4.300;2022-11-10T01:32:26;11.20;99.90
19538;DHT22;9914;51.008;4.300;2022-11-10T01:34:52;11.10;99.90
19538;DHT22;9914;51.008;4.300;2022-11-10T01:37:17;11.20;99.90
19538;DHT22;9914;51.008;4.300;2022-11-10T01:39:43;11.10;99.90
19538;DHT22;9914;51.008;4.300;2022-11-10T01:42:08;11.10;99.90
19538;DHT22;9914;51.008;4.300;2022-11-10T01:44:34;11.10;99.90
19538;DHT22;9914;51.008;4.300;2022-11-10T01:47:00;11.10;99.90
19538;DHT22;9914;51.008;4.300;2022-11-10T01:49:27;11.20;99.90
19538;DHT22;9914;51.008;4.300;2022-11-10T01:54:26;11.10;99.90
19538;DHT22;9914;51.008;4.300;2022-11-10T01:56:56;11.10;99.90
19538;DHT22;9914;51.008;4.300;2022-11-10T01:59:26;11.10;99.90
19538;DHT22;9914;51.008;4.300;2022-11-10T02:01:55;11.10;99.90
19538;DHT22;9914;51.008;4.300;2022-11-10T02:04:23;11.00;99.90
19538;DHT22;9914;51.008;4.300;2022-11-10T02:06:50;11.00;99.90
19538;DHT22;9914;51.008;4.300;2022-11-10T02:09:16;11.00;99.90
19538;DHT22;9914;51.008;4.300;2022-11-10T02:11:43;11.00;99.90
19538;DHT22;9914;51.008;4.300;2022-11-10T02:14:08;11.00;99.90
19538;DHT22;9914;51.008;4.300;2022-11-10T02:16:35;11.10;99.90
19538;DHT22;9914;51.008;4.300;2022-11-10T02:19:21;11.00;99.90
19538;DHT22;9914;51.008;4.300;2022-11-10T02:21:47;10.90;99.90
19538;DHT22;9914;51.008;4.300;2022-11-10T02:24:13;10.90;99.90
19538;DHT22;9914;51.008;4.300;2022-11-10T02:26:47;10.90;99.90
19538;DHT22;9914;51.008;4.300;2022-11-10T02:29:15;10.80;99.90
19538;DHT22;9914;51.008;4.300;2022-11-10T02:31:41;10.80;99.90
19538;DHT22;9914;51.008;4.300;2022-11-10T02:34:06;10.80;99.90
19538;DHT22;9914;51.008;4.300;2022-11-10T02:36:32;10.90;99.90
19538;DHT22;9914;51.008;4.300;2022-11-10T02:38:58;10.90;99.90
19538;DHT22;9914;51.008;4.300;2022-11-10T02:41:24;10.90;99.90
19538;DHT22;9914;51.008;4.300;2022-11-10T02:43:50;10.90;99.90
19538;DHT22;9914;51.008;4.300;2022-11-10T02:46:16;10.90;99.90
19538;DHT22;9914;51.008;4.300;2022-11-10T02:48:42;10.90;99.90
19538;DHT22;9914;51.008;4.300;2022-11-10T02:51:07;10.80;99.90
19538;DHT22;9914;51.008;4.300;2022-11-10T02:53:34;10.80;99.90
19538;DHT22;9914;51.008;4.300;2022-11-10T02:55:59;10.80;99.90
19538;DHT22;9914;51.008;4.300;2022-11-10T02:58:25;10.80;99.90
19538;DHT22;9914;51.008;4.300;2022-11-10T03:00:50;10.90;99.90
19538;DHT22;9914;51.008;4.300;2022-11-10T03:03:16;10.90;99.90
19538;DHT22;9914;51.008;4.300;2022-11-10T03:05:41;10.90;99.90
19538;DHT22;9914;51.008;4.300;2022-11-10T03:08:07;10.90;99.90
19538;DHT22;9914;51.008;4.300;2022-11-10T03:10:33;11.00;99.90
19538;DHT22;9914;51.008;4.300;2022-11-10T03:13:00;10.90;99.90
19538;DHT22;9914;51.008;4.300;2022-11-10T03:15:26;10.90;99.90
19538;DHT22;9914;51.008;4.300;2022-11-10T03:17:52;10.80;99.90
19538;DHT22;9914;51.008;4.300;2022-11-10T03:20:18;10.80;99.90
19538;DHT22;9914;51.008;4.300;2022-11-10T03:22:43;10.90;99.90
19538;DHT22;9914;51.008;4.300;2022-11-10T03:25:10;10.80;99.90
19538;DHT22;9914;51.008;4.300;2022-11-10T03:27:35;10.90;99.90
19538;DHT22;9914;51.008;4.300;2022-11-10T03:30:02;10.90;99.90
19538;DHT22;9914;51.008;4.300;2022-11-10T03:32:27;10.90;99.90
19538;DHT22;9914;51.008;4.300;2022-11-10T03:34:53;11.00;99.90
19538;DHT22;9914;51.008;4.300;2022-11-10T03:37:19;11.00;99.90
19538;DHT22;9914;51.008;4.300;2022-11-10T03:39:44;11.10;99.90
19538;DHT22;9914;51.008;4.300;2022-11-10T03:42:10;11.10;99.90
19538;DHT22;9914;51.008;4.300;2022-11-10T03:44:35;11.20;99.90
19538;DHT22;9914;51.008;4.300;2022-11-10T03:47:01;11.30;99.90
19538;DHT22;9914;51.008;4.300;2022-11-10T03:49:29;11.30;99.90
19538;DHT22;9914;51.008;4.300;2022-11-10T03:51:54;11.30;99.90
19538;DHT22;9914;51.008;4.300;2022-11-10T03:54:20;11.30;99.90
19538;DHT22;9914;51.008;4.300;2022-11-10T03:56:46;11.30;99.90
19538;DHT22;9914;51.008;4.300;2022-11-10T03:59:12;11.20;99.90
19538;DHT22;9914;51.008;4.300;2022-11-10T04:01:37;11.10;99.90
19538;DHT22;9914;51.008;4.300;2022-11-10T04:04:03;11.00;99.90
19538;DHT22;9914;51.008;4.300;2022-11-10T04:06:28;11.00;99.90
19538;DHT22;9914;51.008;4.300;2022-11-10T04:09:12;10.90;99.90
19538;DHT22;9914;51.008;4.300;2022-11-10T04:11:38;10.90;99.90
19538;DHT22;9914;51.008;4.300;2022-11-10T04:14:22;10.80;99.90
19538;DHT22;9914;51.008;4.300;2022-11-10T04:17:06;10.80;99.90
19538;DHT22;9914;51.008;4.300;2022-11-10T04:19:32;10.80;99.90
19538;DHT22;9914;51.008;4.300;2022-11-10T04:21:58;10.90;99.90
19538;DHT22;9914;51.008;4.300;2022-11-10T04:24:23;10.80;99.90
19538;DHT22;9914;51.008;4.300;2022-11-10T04:26:49;10.80;99.90
19538;DHT22;9914;51.008;4.300;2022-11-10T04:29:18;10.80;99.90
19538;DHT22;9914;51.008;4.300;2022-11-10T04:31:44;10.70;99.90
19538;DHT22;9914;51.008;4.300;2022-11-10T04:34:12;10.70;99.90
19538;DHT22;9914;51.008;4.300;2022-11-10T04:36:40;10.80;99.90
19538;DHT22;9914;51.008;4.300;2022-11-10T04:39:07;10.80;99.90
19538;DHT22;9914;51.008;4.300;2022-11-10T04:41:33;10.80;99.90
19538;DHT22;9914;51.008;4.300;2022-11-10T04:44:00;10.80;99.90
19538;DHT22;9914;51.008;4.300;2022-11-10T04:46:27;10.80;99.90
19538;DHT22;9914;51.008;4.300;2022-11-10T04:48:53;10.90;99.90
19538;DHT22;9914;51.008;4.300;2022-11-10T04:51:22;10.80;99.90
19538;DHT22;9914;51.008;4.300;2022-11-10T04:53:47;10.70;99.90
19538;DHT22;9914;51.008;4.300;2022-11-10T04:56:21;10.70;99.90
19538;DHT22;9914;51.008;4.300;2022-11-10T04:58:48;10.70;99.90
19538;DHT22;9914;51.008;4.300;2022-11-10T05:01:16;10.60;99.90
19538;DHT22;9914;51.008;4.300;2022-11-10T05:03:43;10.50;99.90
19538;DHT22;9914;51.008;4.300;2022-11-10T05:06:09;10.40;99.90
19538;DHT22;9914;51.008;4.300;2022-11-10T05:08:36;10.50;99.90
19538;DHT22;9914;51.008;4.300;2022-11-10T05:11:02;10.40;99.90
19538;DHT22;9914;51.008;4.300;2022-11-10T05:13:27;10.50;99.90
19538;DHT22;9914;51.008;4.300;2022-11-10T05:15:53;10.40;99.90
19538;DHT22;9914;51.008;4.300;2022-11-10T05:18:19;10.40;99.90
19538;DHT22;9914;51.008;4.300;2022-11-10T05:20:44;10.40;99.90
19538;DHT22;9914;51.008;4.300;2022-11-10T05:23:10;10.40;99.90
19538;DHT22;9914;51.008;4.300;2022-11-10T05:25:54;10.40;99.90
19538;DHT22;9914;51.008;4.300;2022-11-10T05:28:20;10.50;99.90
19538;DHT22;9914;51.008;4.300;2022-11-10T05:30:46;10.40;99.90
19538;DHT22;9914;51.008;4.300;2022-11-10T05:33:11;10.30;99.90
19538;DHT22;9914;51.008;4.300;2022-11-10T05:35:38;10.30;99.90
19538;DHT22;9914;51.008;4.300;2022-11-10T05:38:04;10.30;99.90
19538;DHT22;9914;51.008;4.300;2022-11-10T05:40:31;10.30;99.90
19538;DHT22;9914;51.008;4.300;2022-11-10T05:42:57;10.30;99.90
19538;DHT22;9914;51.008;4.300;2022-11-10T05:45:25;10.30;99.90
19538;DHT22;9914;51.008;4.300;2022-11-10T05:47:53;10.20;99.90
19538;DHT22;9914;51.008;4.300;2022-11-10T05:50:20;10.20;99.90
19538;DHT22;9914;51.008;4.300;2022-11-10T05:52:52;10.20;99.90
19538;DHT22;9914;51.008;4.300;2022-11-10T05:55:24;10.20;99.90
19538;DHT22;9914;51.008;4.300;2022-11-10T05:57:51;10.20;99.90
19538;DHT22;9914;51.008;4.300;2022-11-10T06:00:19;10.20;99.90
19538;DHT22;9914;51.008;4.300;2022-11-10T06:02:58;10.10;99.90
19538;DHT22;9914;51.008;4.300;2022-11-10T06:05:24;10.20;99.90
19538;DHT22;9914;51.008;4.300;2022-11-10T06:07:50;10.10;99.90
19538;DHT22;9914;51.008;4.300;2022-11-10T06:10:16;10.20;99.90
19538;DHT22;9914;51.008;4.300;2022-11-10T06:12:41;10.20;99.90
19538;DHT22;9914;51.008;4.300;2022-11-10T06:15:07;10.10;99.90
19538;DHT22;9914;51.008;4.300;2022-11-10T06:17:36;10.10;99.90
19538;DHT22;9914;51.008;4.300;2022-11-10T06:20:02;10.10;99.90
19538;DHT22;9914;51.008;4.300;2022-11-10T06:22:28;10.10;99.90
19538;DHT22;9914;51.008;4.300;2022-11-10T06:24:53;10.20;99.90
19538;DHT22;9914;51.008;4.300;2022-11-10T06:27:19;10.20;99.90
19538;DHT22;9914;51.008;4.300;2022-11-10T06:29:44;10.20;99.90
19538;DHT22;9914;51.008;4.300;2022-11-10T06:32:10;10.20;99.90
19538;DHT22;9914;51.008;4.300;2022-11-10T06:34:36;10.20;99.90
19538;DHT22;9914;51.008;4.300;2022-11-10T06:37:02;10.20;99.90
19538;DHT22;9914;51.008;4.300;2022-11-10T06:39:27;10.20;99.90
19538;DHT22;9914;51.008;4.300;2022-11-10T06:41:53;10.20;99.90
19538;DHT22;9914;51.008;4.300;2022-11-10T06:44:18;10.20;99.90
19538;DHT22;9914;51.008;4.300;2022-11-10T06:46:44;10.20;99.90
19538;DHT22;9914;51.008;4.300;2022-11-10T06:49:09;10.20;99.90
19538;DHT22;9914;51.008;4.300;2022-11-10T06:51:35;10.20;99.90
19538;DHT22;9914;51.008;4.300;2022-11-10T06:54:01;10.20;99.90
19538;DHT22;9914;51.008;4.300;2022-11-10T06:56:26;10.20;99.90
19538;DHT22;9914;51.008;4.300;2022-11-10T06:58:55;10.20;99.90
19538;DHT22;9914;51.008;4.300;2022-11-10T07:01:20;10.20;99.90
19538;DHT22;9914;51.008;4.300;2022-11-10T07:03:51;10.30;99.90
19538;DHT22;9914;51.008;4.300;2022-11-10T07:06:18;10.40;99.90
19538;DHT22;9914;51.008;4.300;2022-11-10T07:08:43;10.40;99.90
19538;DHT22;9914;51.008;4.300;2022-11-10T07:11:09;10.50;99.90
19538;DHT22;9914;51.008;4.300;2022-11-10T07:13:34;10.40;99.90
19538;DHT22;9914;51.008;4.300;2022-11-10T07:16:03;10.40;99.90
19538;DHT22;9914;51.008;4.300;2022-11-10T07:18:29;10.50;99.90
19538;DHT22;9914;51.008;4.300;2022-11-10T07:20:54;10.50;99.90
19538;DHT22;9914;51.008;4.300;2022-11-10T07:23:20;10.50;99.90
19538;DHT22;9914;51.008;4.300;2022-11-10T07:25:45;10.40;99.90
19538;DHT22;9914;51.008;4.300;2022-11-10T07:28:11;10.50;99.90
19538;DHT22;9914;51.008;4.300;2022-11-10T07:30:37;10.50;99.90
19538;DHT22;9914;51.008;4.300;2022-11-10T07:33:10;10.50;99.90
19538;DHT22;9914;51.008;4.300;2022-11-10T07:35:36;10.60;99.90
19538;DHT22;9914;51.008;4.300;2022-11-10T07:38:07;10.50;99.90
19538;DHT22;9914;51.008;4.300;2022-11-10T07:40:33;10.60;99.90
19538;DHT22;9914;51.008;4.300;2022-11-10T07:43:00;10.70;99.90
19538;DHT22;9914;51.008;4.300;2022-11-10T07:45:25;10.70;99.90
19538;DHT22;9914;51.008;4.300;2022-11-10T07:47:51;10.70;99.90
19538;DHT22;9914;51.008;4.300;2022-11-10T07:50:22;10.60;99.90
19538;DHT22;9914;51.008;4.300;2022-11-10T07:52:47;10.70;99.90
19538;DHT22;9914;51.008;4.300;2022-11-10T07:55:13;10.80;99.90
19538;DHT22;9914;51.008;4.300;2022-11-10T07:57:38;10.70;99.90
19538;DHT22;9914;51.008;4.300;2022-11-10T08:00:04;10.70;99.90
19538;DHT22;9914;51.008;4.300;2022-11-10T08:02:30;10.70;99.90
19538;DHT22;9914;51.008;4.300;2022-11-10T08:04:55;10.80;99.90
19538;DHT22;9914;51.008;4.300;2022-11-10T08:07:21;10.80;99.90
19538;DHT22;9914;51.008;4.300;2022-11-10T08:09:47;10.80;99.90
19538;DHT22;9914;51.008;4.300;2022-11-10T08:12:12;10.80;99.90
19538;DHT22;9914;51.008;4.300;2022-11-10T08:14:38;10.90;99.90
19538;DHT22;9914;51.008;4.300;2022-11-10T08:17:04;10.90;99.90
19538;DHT22;9914;51.008;4.300;2022-11-10T08:19:29;10.80;99.90
19538;DHT22;9914;51.008;4.300;2022-11-10T08:21:55;10.90;99.90
19538;DHT22;9914;51.008;4.300;2022-11-10T08:24:20;10.90;99.90
19538;DHT22;9914;51.008;4.300;2022-11-10T08:26:46;11.00;99.90
19538;DHT22;9914;51.008;4.300;2022-11-10T08:29:11;11.10;99.90
19538;DHT22;9914;51.008;4.300;2022-11-10T08:31:37;11.20;99.90
19538;DHT22;9914;51.008;4.300;2022-11-10T08:34:03;11.10;99.90
19538;DHT22;9914;51.008;4.300;2022-11-10T08:36:30;11.20;99.90
19538;DHT22;9914;51.008;4.300;2022-11-10T08:38:55;11.30;99.90
19538;DHT22;9914;51.008;4.300;2022-11-10T08:41:21;11.40;99.90
19538;DHT22;9914;51.008;4.300;2022-11-10T08:43:46;11.40;99.90
19538;DHT22;9914;51.008;4.300;2022-11-10T08:46:12;11.60;99.90
19538;DHT22;9914;51.008;4.300;2022-11-10T08:48:38;11.60;99.90
19538;DHT22;9914;51.008;4.300;2022-11-10T08:51:03;11.70;99.90
19538;DHT22;9914;51.008;4.300;2022-11-10T08:53:29;11.70;99.90
19538;DHT22;9914;51.008;4.300;2022-11-10T08:55:57;11.80;99.90
19538;DHT22;9914;51.008;4.300;2022-11-10T08:58:24;11.90;99.90
19538;DHT22;9914;51.008;4.300;2022-11-10T09:00:50;12.00;99.90
19538;DHT22;9914;51.008;4.300;2022-11-10T09:03:18;12.00;99.90
19538;DHT22;9914;51.008;4.300;2022-11-10T09:05:45;12.10;99.90
19538;DHT22;9914;51.008;4.300;2022-11-10T09:08:12;12.20;99.90
19538;DHT22;9914;51.008;4.300;2022-11-10T09:10:40;12.30;99.90
19538;DHT22;9914;51.008;4.300;2022-11-10T09:13:06;12.40;99.90
19538;DHT22;9914;51.008;4.300;2022-11-10T09:15:33;12.40;99.90
19538;DHT22;9914;51.008;4.300;2022-11-10T09:18:00;12.40;99.90
19538;DHT22;9914;51.008;4.300;2022-11-10T09:20:27;12.40;99.90
19538;DHT22;9914;51.008;4.300;2022-11-10T09:22:55;12.40;99.90
19538;DHT22;9914;51.008;4.300;2022-11-10T09:25:21;12.40;99.90
19538;DHT22;9914;51.008;4.300;2022-11-10T09:27:49;12.50;99.90
19538;DHT22;9914;51.008;4.300;2022-11-10T09:30:14;12.60;99.90
19538;DHT22;9914;51.008;4.300;2022-11-10T09:32:40;12.70;99.90
19538;DHT22;9914;51.008;4.300;2022-11-10T09:35:06;12.70;99.90
19538;DHT22;9914;51.008;4.300;2022-11-10T09:37:32;12.80;99.90
19538;DHT22;9914;51.008;4.300;2022-11-10T09:40:02;13.00;99.90
19538;DHT22;9914;51.008;4.300;2022-11-10T09:42:39;13.10;99.90
19538;DHT22;9914;51.008;4.300;2022-11-10T09:45:31;13.10;99.90
19538;DHT22;9914;51.008;4.300;2022-11-10T09:50:43;13.30;99.90
19538;DHT22;9914;51.008;4.300;2022-11-10T09:53:18;13.50;99.90
19538;DHT22;9914;51.008;4.300;2022-11-10T09:55:59;13.70;99.90
19538;DHT22;9914;51.008;4.300;2022-11-10T09:58:36;13.70;99.90
19538;DHT22;9914;51.008;4.300;2022-11-10T10:03:41;13.90;99.90
19538;DHT22;9914;51.008;4.300;2022-11-10T10:06:12;13.90;99.90
19538;DHT22;9914;51.008;4.300;2022-11-10T10:09:07;14.00;99.90
19538;DHT22;9914;51.008;4.300;2022-11-10T10:12:02;13.90;99.90
19538;DHT22;9914;51.008;4.300;2022-11-10T10:17:54;14.00;99.90
19538;DHT22;9914;51.008;4.300;2022-11-10T10:23:16;14.10;99.90
19538;DHT22;9914;51.008;4.300;2022-11-10T10:25:45;14.10;99.90
19538;DHT22;9914;51.008;4.300;2022-11-10T10:30:43;14.30;99.90
19538;DHT22;9914;51.008;4.300;2022-11-10T10:33:18;14.50;99.90
19538;DHT22;9914;51.008;4.300;2022-11-10T10:35:45;14.40;99.90
19538;DHT22;9914;51.008;4.300;2022-11-10T10:38:26;14.50;99.90
19538;DHT22;9914;51.008;4.300;2022-11-10T10:40:59;14.60;99.90
19538;DHT22;9914;51.008;4.300;2022-11-10T10:43:27;14.70;99.90
19538;DHT22;9914;51.008;4.300;2022-11-10T10:46:10;14.70;99.90
19538;DHT22;9914;51.008;4.300;2022-11-10T10:48:36;14.80;99.90
19538;DHT22;9914;51.008;4.300;2022-11-10T10:51:02;14.90;99.90
19538;DHT22;9914;51.008;4.300;2022-11-10T10:53:28;15.00;99.90
19538;DHT22;9914;51.008;4.300;2022-11-10T10:56:16;15.00;99.90
19538;DHT22;9914;51.008;4.300;2022-11-10T10:58:54;15.10;99.90
19538;DHT22;9914;51.008;4.300;2022-11-10T11:03:52;15.10;99.90
19538;DHT22;9914;51.008;4.300;2022-11-10T11:06:27;15.20;99.90
19538;DHT22;9914;51.008;4.300;2022-11-10T11:09:05;15.30;99.90
19538;DHT22;9914;51.008;4.300;2022-11-10T11:11:34;15.40;99.90
19538;DHT22;9914;51.008;4.300;2022-11-10T11:14:18;15.50;99.90
19538;DHT22;9914;51.008;4.300;2022-11-10T11:19:41;15.40;99.90
19538;DHT22;9914;51.008;4.300;2022-11-10T11:22:39;15.20;99.90
19538;DHT22;9914;51.008;4.300;2022-11-10T11:27:54;15.10;99.90
19538;DHT22;9914;51.008;4.300;2022-11-10T11:30:27;15.20;99.90
19538;DHT22;9914;51.008;4.300;2022-11-10T11:36:08;15.40;99.90
19538;DHT22;9914;51.008;4.300;2022-11-10T11:39:00;15.60;99.90
19538;DHT22;9914;51.008;4.300;2022-11-10T11:41:51;15.70;99.90
19538;DHT22;9914;51.008;4.300;2022-11-10T11:44:36;15.80;99.90
19538;DHT22;9914;51.008;4.300;2022-11-10T11:47:24;16.00;99.90
19538;DHT22;9914;51.008;4.300;2022-11-10T11:50:15;16.20;99.90
19538;DHT22;9914;51.008;4.300;2022-11-10T11:52:46;16.30;99.90
19538;DHT22;9914;51.008;4.300;2022-11-10T12:09:02;15.90;99.90
19538;DHT22;9914;51.008;4.300;2022-11-10T12:17:11;16.00;99.90
19538;DHT22;9914;51.008;4.300;2022-11-10T12:19:54;16.00;99.90
19538;DHT22;9914;51.008;4.300;2022-11-10T12:22:34;16.20;99.90
19538;DHT22;9914;51.008;4.300;2022-11-10T12:27:43;16.20;99.90
19538;DHT22;9914;51.008;4.300;2022-11-10T12:30:11;16.20;99.90
19538;DHT22;9914;51.008;4.300;2022-11-10T12:33:01;16.20;99.90
19538;DHT22;9914;51.008;4.300;2022-11-10T12:35:35;16.40;99.90
19538;DHT22;9914;51.008;4.300;2022-11-10T12:38:07;16.30;99.90
19538;DHT22;9914;51.008;4.300;2022-11-10T12:40:45;16.30;99.90
19538;DHT22;9914;51.008;4.300;2022-11-10T12:45:52;16.40;99.90
19538;DHT22;9914;51.008;4.300;2022-11-10T12:48:19;16.20;99.90
19538;DHT22;9914;51.008;4.300;2022-11-10T12:50:54;16.30;99.90
19538;DHT22;9914;51.008;4.300;2022-11-10T12:53:25;16.20;99.90
19538;DHT22;9914;51.008;4.300;2022-11-10T12:58:25;16.20;99.90
19538;DHT22;9914;51.008;4.300;2022-11-10T13:05:56;16.50;99.90
19538;DHT22;9914;51.008;4.300;2022-11-10T13:08:27;16.50;99.90
19538;DHT22;9914;51.008;4.300;2022-11-10T13:10:56;16.50;99.90
19538;DHT22;9914;51.008;4.300;2022-11-10T13:13:24;16.60;99.90
19538;DHT22;9914;51.008;4.300;2022-11-10T13:15:54;16.70;99.90
19538;DHT22;9914;51.008;4.300;2022-11-10T13:21:06;16.80;99.90
19538;DHT22;9914;51.008;4.300;2022-11-10T13:26:48;16.60;99.90
19538;DHT22;9914;51.008;4.300;2022-11-10T13:28:56;16.60;99.90
19538;DHT22;9914;51.008;4.300;2022-11-10T13:36:46;16.40;99.90
19538;DHT22;9914;51.008;4.300;2022-11-10T13:39:23;16.40;99.90
19538;DHT22;9914;51.008;4.300;2022-11-10T13:42:13;16.50;99.90
19538;DHT22;9914;51.008;4.300;2022-11-10T13:44:40;16.50;99.90
19538;DHT22;9914;51.008;4.300;2022-11-10T13:49:47;16.40;99.90
19538;DHT22;9914;51.008;4.300;2022-11-10T13:52:29;16.30;99.90
19538;DHT22;9914;51.008;4.300;2022-11-10T13:58:09;16.30;99.90
19538;DHT22;9914;51.008;4.300;2022-11-10T14:00:36;16.30;99.90
19538;DHT22;9914;51.008;4.300;2022-11-10T14:03:05;16.40;99.90
19538;DHT22;9914;51.008;4.300;2022-11-10T14:08:17;16.30;99.90
19538;DHT22;9914;51.008;4.300;2022-11-10T14:10:58;16.40;99.90
19538;DHT22;9914;51.008;4.300;2022-11-10T14:13:41;16.50;99.90
19538;DHT22;9914;51.008;4.300;2022-11-10T14:16:23;16.40;99.90
19538;DHT22;9914;51.008;4.300;2022-11-10T14:19:02;16.40;99.90
19538;DHT22;9914;51.008;4.300;2022-11-10T14:21:42;16.30;99.90
19538;DHT22;9914;51.008;4.300;2022-11-10T14:24:19;16.30;99.90
19538;DHT22;9914;51.008;4.300;2022-11-10T14:26:52;16.10;99.90
19538;DHT22;9914;51.008;4.300;2022-11-10T14:29:34;15.90;99.90
19538;DHT22;9914;51.008;4.300;2022-11-10T14:32:04;15.90;99.90
19538;DHT22;9914;51.008;4.300;2022-11-10T14:34:46;15.90;99.90
19538;DHT22;9914;51.008;4.300;2022-11-10T14:37:16;16.00;99.90
19538;DHT22;9914;51.008;4.300;2022-11-10T14:39:46;15.90;99.90
19538;DHT22;9914;51.008;4.300;2022-11-10T14:42:15;15.80;99.90
19538;DHT22;9914;51.008;4.300;2022-11-10T14:44:44;15.80;99.90
19538;DHT22;9914;51.008;4.300;2022-11-10T14:47:31;15.70;99.90
19538;DHT22;9914;51.008;4.300;2022-11-10T14:52:40;15.60;99.90
19538;DHT22;9914;51.008;4.300;2022-11-10T14:55:14;15.60;99.90
19538;DHT22;9914;51.008;4.300;2022-11-10T14:57:40;15.60;99.90
19538;DHT22;9914;51.008;4.300;2022-11-10T15:00:16;15.60;99.90
19538;DHT22;9914;51.008;4.300;2022-11-10T15:02:42;15.70;99.90
19538;DHT22;9914;51.008;4.300;2022-11-10T15:05:12;15.70;99.90
19538;DHT22;9914;51.008;4.300;2022-11-10T15:07:39;15.70;99.90
19538;DHT22;9914;51.008;4.300;2022-11-10T15:10:17;15.70;99.90
19538;DHT22;9914;51.008;4.300;2022-11-10T15:12:43;15.70;99.90
19538;DHT22;9914;51.008;4.300;2022-11-10T15:15:20;15.50;99.90
19538;DHT22;9914;51.008;4.300;2022-11-10T15:17:49;15.50;99.90
19538;DHT22;9914;51.008;4.300;2022-11-10T15:22:58;15.50;99.90
19538;DHT22;9914;51.008;4.300;2022-11-10T15:25:34;15.50;99.90
19538;DHT22;9914;51.008;4.300;2022-11-10T15:30:54;15.50;99.90
19538;DHT22;9914;51.008;4.300;2022-11-10T15:33:28;15.50;99.90
19538;DHT22;9914;51.008;4.300;2022-11-10T15:36:13;15.40;99.90
19538;DHT22;9914;51.008;4.300;2022-11-10T15:38:39;15.20;99.90
19538;DHT22;9914;51.008;4.300;2022-11-10T15:41:10;15.20;99.90
19538;DHT22;9914;51.008;4.300;2022-11-10T15:43:38;15.10;99.90
19538;DHT22;9914;51.008;4.300;2022-11-10T15:46:30;15.00;99.90
19538;DHT22;9914;51.008;4.300;2022-11-10T15:48:55;15.00;99.90
19538;DHT22;9914;51.008;4.300;2022-11-10T15:51:26;15.00;99.90
19538;DHT22;9914;51.008;4.300;2022-11-10T15:53:52;14.90;99.90
19538;DHT22;9914;51.008;4.300;2022-11-10T15:56:23;14.90;99.90
19538;DHT22;9914;51.008;4.300;2022-11-10T15:58:51;14.80;99.90
19538;DHT22;9914;51.008;4.300;2022-11-10T16:01:19;14.90;99.90
19538;DHT22;9914;51.008;4.300;2022-11-10T16:03:45;14.80;99.90
19538;DHT22;9914;51.008;4.300;2022-11-10T16:06:14;14.80;99.90
19538;DHT22;9914;51.008;4.300;2022-11-10T16:08:41;14.80;99.90
19538;DHT22;9914;51.008;4.300;2022-11-10T16:11:16;14.80;99.90
19538;DHT22;9914;51.008;4.300;2022-11-10T16:13:43;14.70;99.90
19538;DHT22;9914;51.008;4.300;2022-11-10T16:16:14;14.60;99.90
19538;DHT22;9914;51.008;4.300;2022-11-10T16:18:43;14.60;99.90
19538;DHT22;9914;51.008;4.300;2022-11-10T16:21:16;14.60;99.90
19538;DHT22;9914;51.008;4.300;2022-11-10T16:23:42;14.60;99.90
19538;DHT22;9914;51.008;4.300;2022-11-10T16:26:14;14.60;99.90
19538;DHT22;9914;51.008;4.300;2022-11-10T16:28:40;14.40;99.90
19538;DHT22;9914;51.008;4.300;2022-11-10T16:31:10;14.50;99.90
19538;DHT22;9914;51.008;4.300;2022-11-10T16:33:36;14.40;99.90
19538;DHT22;9914;51.008;4.300;2022-11-10T16:36:02;14.30;99.90
19538;DHT22;9914;51.008;4.300;2022-11-10T16:38:29;14.30;99.90
19538;DHT22;9914;51.008;4.300;2022-11-10T16:41:00;14.30;99.90
19538;DHT22;9914;51.008;4.300;2022-11-10T16:43:27;14.30;99.90
19538;DHT22;9914;51.008;4.300;2022-11-10T16:45:57;14.20;99.90
19538;DHT22;9914;51.008;4.300;2022-11-10T16:48:26;14.10;99.90
19538;DHT22;9914;51.008;4.300;2022-11-10T16:50:55;14.10;99.90
19538;DHT22;9914;51.008;4.300;2022-11-10T16:53:26;14.10;99.90
19538;DHT22;9914;51.008;4.300;2022-11-10T16:55:53;14.00;99.90
19538;DHT22;9914;51.008;4.300;2022-11-10T16:58:18;13.90;99.90
19538;DHT22;9914;51.008;4.300;2022-11-10T17:00:46;13.80;99.90
19538;DHT22;9914;51.008;4.300;2022-11-10T17:03:37;13.80;99.90
19538;DHT22;9914;51.008;4.300;2022-11-10T17:06:04;13.70;99.90
19538;DHT22;9914;51.008;4.300;2022-11-10T17:08:31;13.60;99.90
19538;DHT22;9914;51.008;4.300;2022-11-10T17:10:58;13.60;99.90
19538;DHT22;9914;51.008;4.300;2022-11-10T17:13:25;13.50;99.90
19538;DHT22;9914;51.008;4.300;2022-11-10T17:16:05;13.40;99.90
19538;DHT22;9914;51.008;4.300;2022-11-10T17:18:31;13.40;99.90
19538;DHT22;9914;51.008;4.300;2022-11-10T17:20:59;13.30;99.90
19538;DHT22;9914;51.008;4.300;2022-11-10T17:23:25;13.30;99.90
19538;DHT22;9914;51.008;4.300;2022-11-10T17:25:51;13.20;99.90